Big Bear Station Historical Data
Daily Summary for January 26, 2019 Units:  Metric    English   Both
Next Day »
Daily Weekly Monthly Yearly Custom
  High: Low: Average:
Temperature: 10 °C 0.9 °C 4.3 °C
Dew Point: -6.7 °C -10.7 °C -8.6 °C
Humidity: 53% 26% 39%
Wind Speed: 8.5km/h 0km/h 1.6km/h
Wind Gust: -1607.7km/h - -
Wind- - SSW
Pressure: 803.8 hPa 800.8 hPa -
Precipitation: 0 mm    
Historical Graphs
 
 
Tabular Data for January 26, 2019
Time Temperature Dew Point Pressure Wind Wind Speed Wind Gust Humidity Rainfall Rate (Hourly)
00:13 3.2 °C -8.8 °C 800.8 hPa SE 1.8 km/h -1607.7 km/h 41% 0 mm
00:28 2.9 °C -9.1 °C 800.8 hPa Calm   -1607.7 km/h 41% 0 mm
00:44 3.2 °C -9.4 °C 800.8 hPa ESE 1.8 km/h -1607.7 km/h 39% 0 mm
00:59 3 °C -9 °C 800.8 hPa East 2.7 km/h -1607.7 km/h 41% 0 mm
01:14 2.9 °C -9.1 °C 800.8 hPa East 2.7 km/h -1607.7 km/h 41% 0 mm
01:29 3.3 °C -9.1 °C 800.8 hPa North 4.3 km/h -1607.7 km/h 40% 0 mm
01:44 2.9 °C -8.8 °C 801.1 hPa SSW 4.3 km/h -1607.7 km/h 42% 0 mm
02:00 2.9 °C -8.8 °C 801.1 hPa NE 3.5 km/h -1607.7 km/h 42% 0 mm
02:15 2.9 °C -9.1 °C 801.5 hPa ESE 4.3 km/h -1607.7 km/h 41% 0 mm
02:30 3.2 °C -8.5 °C 801.5 hPa Calm   -1607.7 km/h 42% 0 mm
02:45 2.8 °C -8.9 °C 801.8 hPa Calm   -1607.7 km/h 42% 0 mm
03:01 2.7 °C -8.3 °C 801.8 hPa Calm   -1607.7 km/h 44% 0 mm
03:16 2.4 °C -8.3 °C 801.5 hPa Calm   -1607.7 km/h 45% 0 mm
03:31 2.5 °C -8.2 °C 801.5 hPa South 7.6 km/h -1607.7 km/h 45% 0 mm
03:46 2.1 °C -8.6 °C 801.5 hPa West 1.8 km/h -1607.7 km/h 45% 0 mm
04:02 1.7 °C -8.1 °C 801.5 hPa Calm   -1607.7 km/h 48% 0 mm
04:17 1.5 °C -7.8 °C 801.5 hPa SSE 4.3 km/h -1607.7 km/h 50% 0 mm
04:32 1.6 °C -7.9 °C 801.5 hPa Calm   -1607.7 km/h 49% 0 mm
04:47 1.4 °C -8.2 °C 801.8 hPa Calm   -1607.7 km/h 49% 0 mm
05:03 1.2 °C -8.1 °C 801.8 hPa Calm   -1607.7 km/h 50% 0 mm
05:18 0.9 °C -8.6 °C 801.8 hPa Calm   -1607.7 km/h 49% 0 mm
05:33 1.7 °C -9.6 °C 801.8 hPa Calm   -1607.7 km/h 43% 0 mm
05:48 1.5 °C -9.2 °C 802.1 hPa Calm   -1607.7 km/h 45% 0 mm
06:03 1.7 °C -9.6 °C 802.5 hPa Calm   -1607.7 km/h 43% 0 mm
06:18 1.5 °C -8.9 °C 802.5 hPa Calm   -1607.7 km/h 46% 0 mm
06:34 1.7 °C -9.8 °C 802.5 hPa NNW 3.5 km/h -1607.7 km/h 42% 0 mm
06:49 2.2 °C -10 °C 802.8 hPa Calm   -1607.7 km/h 40% 0 mm
07:04 1.8 °C -9.5 °C 803.2 hPa Calm   -1607.7 km/h 43% 0 mm
07:19 1.6 °C -9.1 °C 803.2 hPa Calm   -1607.7 km/h 45% 0 mm
07:35 1.8 °C -9.2 °C 803.2 hPa Calm   -1607.7 km/h 44% 0 mm
07:50 1.7 °C -9.8 °C 803.2 hPa Calm   -1607.7 km/h 42% 0 mm
08:05 2 °C -10.2 °C 802.8 hPa Calm   -1607.7 km/h 40% 0 mm
08:20 2.2 °C -10.3 °C 803.2 hPa Calm   -1607.7 km/h 39% 0 mm
08:35 2.9 °C -10.1 °C 803.2 hPa East 3.5 km/h -1607.7 km/h 38% 0 mm
08:51 3.6 °C -9.4 °C 803.2 hPa Calm   -1607.7 km/h 38% 0 mm
09:06 3.8 °C -9.3 °C 803.2 hPa NW 1.8 km/h -1607.7 km/h 38% 0 mm
09:21 4.2 °C -9.6 °C 803.5 hPa East 1.8 km/h -1607.7 km/h 36% 0 mm
09:36 4.8 °C -9.4 °C 803.5 hPa NNW 3.5 km/h -1607.7 km/h 35% 0 mm
09:52 5.3 °C -10.1 °C 803.5 hPa Calm   -1607.7 km/h 32% 0 mm
10:07 5.7 °C -9.7 °C 803.5 hPa NNW 4.3 km/h -1607.7 km/h 32% 0 mm
10:22 6.1 °C -10.2 °C 803.5 hPa West 7.6 km/h -1607.7 km/h 30% 0 mm
10:37 6.4 °C -9.6 °C 803.5 hPa East 6 km/h -1607.7 km/h 31% 0 mm
10:53 7.1 °C -10.7 °C 803.5 hPa NNE 8.5 km/h -1607.7 km/h 27% 0 mm
11:08 7.4 °C -9.5 °C 803.8 hPa East 1.8 km/h -1607.7 km/h 29% 0 mm
11:23 8.3 °C -8.7 °C 803.8 hPa SSE 1.8 km/h -1607.7 km/h 29% 0 mm
11:38 8.9 °C -7.8 °C 803.5 hPa Calm   -1607.7 km/h 30% 0 mm
11:54 8.2 °C -8.3 °C 803.2 hPa NNE 2.7 km/h -1607.7 km/h 30% 0 mm
12:09 9.1 °C -8 °C 803.2 hPa Calm   -1607.7 km/h 29% 0 mm
12:24 9.1 °C -7.6 °C 802.8 hPa NW 4.3 km/h -1607.7 km/h 30% 0 mm
12:40 9.9 °C -8.3 °C 802.5 hPa SSW 6 km/h -1607.7 km/h 27% 0 mm
12:55 9.3 °C -7.9 °C 802.1 hPa WNW 4.3 km/h -1607.7 km/h 29% 0 mm
13:10 10 °C -8.7 °C 802.1 hPa North 7.6 km/h -1607.7 km/h 26% 0 mm
13:25 9.2 °C -7.5 °C 801.8 hPa NW 7.6 km/h -1607.7 km/h 30% 0 mm
13:40 9.5 °C -7.7 °C 801.8 hPa NW 4.3 km/h -1607.7 km/h 29% 0 mm
13:56 9.5 °C -7.7 °C 801.8 hPa Calm   -1607.7 km/h 29% 0 mm
14:11 9.3 °C -7 °C 801.5 hPa NNW 4.3 km/h -1607.7 km/h 31% 0 mm
14:26 9.6 °C -6.7 °C 801.5 hPa WSW 4.3 km/h -1607.7 km/h 31% 0 mm
14:41 9.6 °C -9 °C 801.5 hPa Calm   -1607.7 km/h 26% 0 mm
14:56 9.6 °C -8.1 °C 801.5 hPa NE 3.5 km/h -1607.7 km/h 28% 0 mm
15:12 9.4 °C -8.2 °C 801.5 hPa Calm   -1607.7 km/h 28% 0 mm
15:27 9.1 °C -8 °C 801.5 hPa Calm   -1607.7 km/h 29% 0 mm
15:42 8.7 °C -7.9 °C 801.5 hPa Calm   -1607.7 km/h 30% 0 mm
15:57 8.3 °C -8.3 °C 801.8 hPa Calm   -1607.7 km/h 30% 0 mm
16:13 7.9 °C -7.8 °C 801.8 hPa Calm   -1607.7 km/h 32% 0 mm
16:28 7.3 °C -6.8 °C 801.8 hPa Calm   -1607.7 km/h 36% 0 mm
16:43 6.5 °C -7.2 °C 801.8 hPa Calm   -1607.7 km/h 37% 0 mm
16:58 6.1 °C -9 °C 801.8 hPa Calm   -1607.7 km/h 33% 0 mm
17:13 5.4 °C -9.2 °C 801.8 hPa Calm   -1607.7 km/h 34% 0 mm
17:29 4.8 °C -10.2 °C 802.1 hPa Calm   -1607.7 km/h 33% 0 mm
17:44 4.2 °C -9.6 °C 802.1 hPa Calm   -1607.7 km/h 36% 0 mm
17:59 3.9 °C -9.5 °C 802.5 hPa Calm   -1607.7 km/h 37% 0 mm
18:14 3.4 °C -7.4 °C 802.8 hPa Calm   -1607.7 km/h 45% 0 mm
18:29 2.9 °C -8.8 °C 802.8 hPa Calm   -1607.7 km/h 42% 0 mm
18:45 2.6 °C -7.3 °C 802.8 hPa Calm   -1607.7 km/h 48% 0 mm
19:00 2.2 °C -7.9 °C 802.8 hPa Calm   -1607.7 km/h 47% 0 mm
19:15 2.1 °C -8.1 °C 802.8 hPa Calm   -1607.7 km/h 47% 0 mm
19:30 2.4 °C -8.6 °C 802.8 hPa Calm   -1607.7 km/h 44% 0 mm
19:46 3 °C -9 °C 802.8 hPa South 1.8 km/h -1607.7 km/h 41% 0 mm
20:01 3.1 °C -9.2 °C 803.2 hPa SSE 3.5 km/h -1607.7 km/h 40% 0 mm
20:16 2.6 °C -9.3 °C 803.2 hPa Calm   -1607.7 km/h 41% 0 mm
20:31 2.1 °C -9.2 °C 803.2 hPa Calm   -1607.7 km/h 43% 0 mm
20:46 2 °C -8.4 °C 803.2 hPa South 4.3 km/h -1607.7 km/h 46% 0 mm
21:02 2 °C -8.7 °C 803.2 hPa SSW 3.5 km/h -1607.7 km/h 45% 0 mm
21:17 1.8 °C -8.9 °C 803.5 hPa Calm   -1607.7 km/h 45% 0 mm
21:32 2.1 °C -7.8 °C 803.5 hPa Calm   -1607.7 km/h 48% 0 mm
21:47 2.2 °C -7.4 °C 803.5 hPa Calm   -1607.7 km/h 49% 0 mm
22:03 2.3 °C -7.6 °C 803.5 hPa South 2.7 km/h -1607.7 km/h 48% 0 mm
22:18 1.9 °C -7.4 °C 803.5 hPa Calm   -1607.7 km/h 50% 0 mm
22:33 1.7 °C -7.6 °C 803.5 hPa Calm   -1607.7 km/h 50% 0 mm
22:49 1.6 °C -7.4 °C 803.5 hPa Calm   -1607.7 km/h 51% 0 mm
23:04 2.1 °C -7.2 °C 803.5 hPa Calm   -1607.7 km/h 50% 0 mm
23:19 1.6 °C -7.4 °C 803.2 hPa Calm   -1607.7 km/h 51% 0 mm
23:34 1.3 °C -7.8 °C 803.2 hPa Calm   -1607.7 km/h 51% 0 mm
23:49 1.2 °C -7.3 °C 803.2 hPa Calm   -1607.7 km/h 53% 0 mm
Big Bear CA Weather